sensor_id;sensor_type;location;lat;lon;timestamp;pressure;altitude;pressure_sealevel;temperature;humidity
32875;BME280;40468;42.128;24.750;2023-07-31T00:00:11;99038.84;;;25.55;39.45
32875;BME280;40468;42.128;24.750;2023-07-31T00:01:43;99041.72;;;25.53;39.88
32875;BME280;40468;42.128;24.750;2023-07-31T00:03:14;99041.34;;;25.56;39.89
32875;BME280;40468;42.128;24.750;2023-07-31T00:04:47;99037.88;;;25.56;39.79
32875;BME280;40468;42.128;24.750;2023-07-31T00:06:19;99042.53;;;25.54;39.62
32875;BME280;40468;42.128;24.750;2023-07-31T00:07:51;99047.88;;;25.54;39.48
32875;BME280;40468;42.128;24.750;2023-07-31T00:09:24;99046.59;;;25.50;39.45
32875;BME280;40468;42.128;24.750;2023-07-31T00:10:55;99048.25;;;25.51;39.82
32875;BME280;40468;42.128;24.750;2023-07-31T00:12:27;99049.06;;;25.51;39.92
32875;BME280;40468;42.128;24.750;2023-07-31T00:13:58;99042.09;;;25.50;39.51
32875;BME280;40468;42.128;24.750;2023-07-31T00:15:29;99043.75;;;25.51;39.92
32875;BME280;40468;42.128;24.750;2023-07-31T00:17:01;99040.63;;;25.48;39.99
32875;BME280;40468;42.128;24.750;2023-07-31T00:18:32;99045.13;;;25.47;40.08
32875;BME280;40468;42.128;24.750;2023-07-31T00:20:06;99055.78;;;25.47;39.76
32875;BME280;40468;42.128;24.750;2023-07-31T00:21:39;99061.00;;;25.40;40.09
32875;BME280;40468;42.128;24.750;2023-07-31T00:23:09;99061.00;;;25.40;40.11
32875;BME280;40468;42.128;24.750;2023-07-31T00:24:41;99061.84;;;25.41;39.73
32875;BME280;40468;42.128;24.750;2023-07-31T00:26:12;99059.34;;;25.39;40.17
32875;BME280;40468;42.128;24.750;2023-07-31T00:27:44;99059.72;;;25.36;40.09
32875;BME280;40468;42.128;24.750;2023-07-31T00:29:16;99065.88;;;25.37;39.79
32875;BME280;40468;42.128;24.750;2023-07-31T00:30:48;99064.88;;;25.38;39.82
32875;BME280;40468;42.128;24.750;2023-07-31T00:32:19;99064.53;;;25.41;40.11
32875;BME280;40468;42.128;24.750;2023-07-31T00:33:50;99062.47;;;25.43;39.83
32875;BME280;40468;42.128;24.750;2023-07-31T00:35:22;99067.00;;;25.42;39.94
32875;BME280;40468;42.128;24.750;2023-07-31T00:36:54;99062.22;;;25.38;40.19
32875;BME280;40468;42.128;24.750;2023-07-31T00:38:25;99061.56;;;25.36;39.83
32875;BME280;40468;42.128;24.750;2023-07-31T00:39:57;99060.75;;;25.35;39.94
32875;BME280;40468;42.128;24.750;2023-07-31T00:41:28;99061.56;;;25.36;39.89
32875;BME280;40468;42.128;24.750;2023-07-31T00:42:59;99062.22;;;25.38;40.04
32875;BME280;40468;42.128;24.750;2023-07-31T00:44:30;99060.19;;;25.40;39.95
32875;BME280;40468;42.128;24.750;2023-07-31T00:46:02;99062.47;;;25.43;40.44
32875;BME280;40468;42.128;24.750;2023-07-31T00:47:34;99063.31;;;25.43;39.98
32875;BME280;40468;42.128;24.750;2023-07-31T00:49:05;99063.31;;;25.43;40.00
32875;BME280;40468;42.128;24.750;2023-07-31T00:50:39;99063.31;;;25.43;40.43
32875;BME280;40468;42.128;24.750;2023-07-31T00:52:10;99064.69;;;25.39;40.49
32875;BME280;40468;42.128;24.750;2023-07-31T00:53:42;99059.56;;;25.38;40.13
32875;BME280;40468;42.128;24.750;2023-07-31T00:55:13;99068.19;;;25.40;40.52
32875;BME280;40468;42.128;24.750;2023-07-31T00:56:45;99073.13;;;25.43;40.06
32875;BME280;40468;42.128;24.750;2023-07-31T00:58:17;99064.16;;;25.44;40.10
32875;BME280;40468;42.128;24.750;2023-07-31T00:59:48;99065.97;;;25.43;40.04
32875;BME280;40468;42.128;24.750;2023-07-31T01:01:19;99074.81;;;25.44;40.54
32875;BME280;40468;42.128;24.750;2023-07-31T01:02:52;99072.16;;;25.44;40.23
32875;BME280;40468;42.128;24.750;2023-07-31T01:04:23;99066.63;;;25.46;40.10
32875;BME280;40468;42.128;24.750;2023-07-31T01:06:07;99075.44;;;25.46;40.11
32875;BME280;40468;42.128;24.750;2023-07-31T01:07:45;99068.00;;;25.41;40.61
32875;BME280;40468;42.128;24.750;2023-07-31T01:09:29;99070.31;;;25.45;40.50
32875;BME280;40468;42.128;24.750;2023-07-31T01:11:09;99079.28;;;25.43;40.20
32875;BME280;40468;42.128;24.750;2023-07-31T01:12:45;99073.50;;;25.40;40.24
32875;BME280;40468;42.128;24.750;2023-07-31T01:14:17;99077.19;;;25.39;40.75
32875;BME280;40468;42.128;24.750;2023-07-31T01:15:49;99079.41;;;25.35;40.41
32875;BME280;40468;42.128;24.750;2023-07-31T01:17:19;99077.56;;;25.36;40.80
32875;BME280;40468;42.128;24.750;2023-07-31T01:18:51;99073.06;;;25.36;40.53
32875;BME280;40468;42.128;24.750;2023-07-31T01:20:23;99079.84;;;25.39;40.64
32875;BME280;40468;42.128;24.750;2023-07-31T01:22:17;99076.91;;;25.34;40.51
32875;BME280;40468;42.128;24.750;2023-07-31T01:24:14;99074.31;;;25.26;40.92
32875;BME280;40468;42.128;24.750;2023-07-31T01:26:04;99068.88;;;25.19;40.64
32875;BME280;40468;42.128;24.750;2023-07-31T01:27:43;99066.22;;;25.19;40.80
32875;BME280;40468;42.128;24.750;2023-07-31T01:29:20;99071.91;;;25.16;41.18
32875;BME280;40468;42.128;24.750;2023-07-31T01:30:58;99071.09;;;25.15;41.15
32875;BME280;40468;42.128;24.750;2023-07-31T01:32:32;99074.78;;;25.14;41.36
32875;BME280;40468;42.128;24.750;2023-07-31T01:34:04;99076.59;;;25.14;41.27
32875;BME280;40468;42.128;24.750;2023-07-31T01:35:37;99078.97;;;25.09;41.17
32875;BME280;40468;42.128;24.750;2023-07-31T01:37:08;99075.78;;;25.05;41.58
32875;BME280;40468;42.128;24.750;2023-07-31T01:38:40;99074.88;;;24.98;41.54
32875;BME280;40468;42.128;24.750;2023-07-31T01:40:11;99070.06;;;24.93;41.75
32875;BME280;40468;42.128;24.750;2023-07-31T01:41:44;99071.75;;;24.94;41.75
32875;BME280;40468;42.128;24.750;2023-07-31T01:43:15;99080.25;;;24.90;41.45
32875;BME280;40468;42.128;24.750;2023-07-31T01:44:47;99070.25;;;24.92;41.78
32875;BME280;40468;42.128;24.750;2023-07-31T01:46:18;99064.13;;;24.91;41.43
32875;BME280;40468;42.128;24.750;2023-07-31T01:47:50;99072.28;;;24.90;41.77
32875;BME280;40468;42.128;24.750;2023-07-31T01:49:21;99071.81;;;24.86;41.80
32875;BME280;40468;42.128;24.750;2023-07-31T01:50:53;99065.66;;;24.86;41.72
32875;BME280;40468;42.128;24.750;2023-07-31T01:52:26;99063.47;;;24.89;41.49
32875;BME280;40468;42.128;24.750;2023-07-31T01:53:58;99061.63;;;24.90;41.43
32875;BME280;40468;42.128;24.750;2023-07-31T01:55:29;99060.78;;;24.89;41.68
32875;BME280;40468;42.128;24.750;2023-07-31T01:57:02;99065.09;;;24.90;41.45
32875;BME280;40468;42.128;24.750;2023-07-31T01:58:33;99067.97;;;24.89;41.26
32875;BME280;40468;42.128;24.750;2023-07-31T02:00:06;99059.63;;;24.92;41.77
32875;BME280;40468;42.128;24.750;2023-07-31T02:01:37;99059.25;;;24.95;41.66
32875;BME280;40468;42.128;24.750;2023-07-31T02:03:09;99059.09;;;24.96;41.31
32875;BME280;40468;42.128;24.750;2023-07-31T02:04:40;99062.56;;;24.97;41.70
32875;BME280;40468;42.128;24.750;2023-07-31T02:06:12;99069.38;;;25.00;41.75
32875;BME280;40468;42.128;24.750;2023-07-31T02:07:42;99072.22;;;24.98;41.26
32875;BME280;40468;42.128;24.750;2023-07-31T02:09:14;99068.88;;;24.96;41.47
32875;BME280;40468;42.128;24.750;2023-07-31T02:10:45;99073.59;;;24.94;41.85
32875;BME280;40468;42.128;24.750;2023-07-31T02:12:18;99073.59;;;24.94;41.82
32875;BME280;40468;42.128;24.750;2023-07-31T02:13:49;99069.44;;;24.91;41.90
32875;BME280;40468;42.128;24.750;2023-07-31T02:15:21;99067.41;;;24.93;41.73
32875;BME280;40468;42.128;24.750;2023-07-31T02:16:52;99068.44;;;24.92;41.34
32875;BME280;40468;42.128;24.750;2023-07-31T02:18:24;99067.97;;;24.89;41.58
32875;BME280;40468;42.128;24.750;2023-07-31T02:19:55;99068.47;;;24.84;41.50
32875;BME280;40468;42.128;24.750;2023-07-31T02:21:26;99060.03;;;24.81;41.61
32875;BME280;40468;42.128;24.750;2023-07-31T02:22:57;99066.38;;;24.80;41.39
32875;BME280;40468;42.128;24.750;2023-07-31T02:24:29;99069.41;;;24.77;41.61
32875;BME280;40468;42.128;24.750;2023-07-31T02:26:00;99065.91;;;24.76;42.05
32875;BME280;40468;42.128;24.750;2023-07-31T02:27:33;99065.34;;;24.81;41.78
32875;BME280;40468;42.128;24.750;2023-07-31T02:29:04;99060.38;;;24.78;42.29
32875;BME280;40468;42.128;24.750;2023-07-31T02:30:36;99051.22;;;24.80;41.88
32875;BME280;40468;42.128;24.750;2023-07-31T02:32:07;99051.38;;;24.79;42.43
32875;BME280;40468;42.128;24.750;2023-07-31T02:33:39;99053.88;;;24.80;42.29
32875;BME280;40468;42.128;24.750;2023-07-31T02:35:10;99053.53;;;24.83;42.49
32875;BME280;40468;42.128;24.750;2023-07-31T02:36:45;99045.53;;;24.83;43.12
32875;BME280;40468;42.128;24.750;2023-07-31T02:38:16;99044.34;;;24.86;43.44
32875;BME280;40468;42.128;24.750;2023-07-31T02:39:48;99044.34;;;24.86;43.55
32875;BME280;40468;42.128;24.750;2023-07-31T02:41:19;99043.69;;;24.84;44.04
32875;BME280;40468;42.128;24.750;2023-07-31T02:42:52;99036.88;;;24.81;44.85
32875;BME280;40468;42.128;24.750;2023-07-31T02:44:23;99041.03;;;24.84;45.54
32875;BME280;40468;42.128;24.750;2023-07-31T02:45:55;99052.50;;;24.84;45.64
32875;BME280;40468;42.128;24.750;2023-07-31T02:47:25;99043.53;;;24.85;45.88
32875;BME280;40468;42.128;24.750;2023-07-31T02:48:57;99041.50;;;24.87;45.99
32875;BME280;40468;42.128;24.750;2023-07-31T02:50:28;99043.16;;;24.88;46.02
32875;BME280;40468;42.128;24.750;2023-07-31T02:52:00;99041.31;;;24.89;46.25
32875;BME280;40468;42.128;24.750;2023-07-31T02:53:31;99042.97;;;24.90;46.79
32875;BME280;40468;42.128;24.750;2023-07-31T02:55:03;99040.16;;;24.91;47.00
32875;BME280;40468;42.128;24.750;2023-07-31T02:56:34;99040.97;;;24.92;47.48
32875;BME280;40468;42.128;24.750;2023-07-31T02:58:07;99034.63;;;24.93;47.54
32875;BME280;40468;42.128;24.750;2023-07-31T02:59:38;99040.31;;;24.90;47.91
32875;BME280;40468;42.128;24.750;2023-07-31T03:01:10;99037.84;;;24.88;48.25
32875;BME280;40468;42.128;24.750;2023-07-31T03:02:42;99040.66;;;24.87;48.49
32875;BME280;40468;42.128;24.750;2023-07-31T03:04:12;99044.00;;;24.89;48.07
32875;BME280;40468;42.128;24.750;2023-07-31T03:05:44;99038.66;;;24.89;48.78
32875;BME280;40468;42.128;24.750;2023-07-31T03:07:16;99036.66;;;24.91;48.87
32875;BME280;40468;42.128;24.750;2023-07-31T03:08:47;99024.88;;;24.85;48.55
32875;BME280;40468;42.128;24.750;2023-07-31T03:10:19;99042.00;;;24.91;48.79
32875;BME280;40468;42.128;24.750;2023-07-31T03:11:49;99036.66;;;24.91;48.95
32875;BME280;40468;42.128;24.750;2023-07-31T03:13:23;99032.31;;;24.90;49.24
32875;BME280;40468;42.128;24.750;2023-07-31T03:14:54;99031.69;;;24.88;49.10
32875;BME280;40468;42.128;24.750;2023-07-31T03:16:25;99041.13;;;24.90;49.45
32875;BME280;40468;42.128;24.750;2023-07-31T03:17:56;99041.13;;;24.90;49.60
32875;BME280;40468;42.128;24.750;2023-07-31T03:19:30;99039.50;;;24.89;50.44
32875;BME280;40468;42.128;24.750;2023-07-31T03:21:01;99039.69;;;24.88;50.98
32875;BME280;40468;42.128;24.750;2023-07-31T03:22:33;99043.69;;;24.84;51.71
32875;BME280;40468;42.128;24.750;2023-07-31T03:24:05;99044.25;;;24.79;52.96
32875;BME280;40468;42.128;24.750;2023-07-31T03:25:36;99048.72;;;24.79;53.92
32875;BME280;40468;42.128;24.750;2023-07-31T03:27:08;99047.44;;;24.74;54.73
32875;BME280;40468;42.128;24.750;2023-07-31T03:28:40;99052.09;;;24.72;55.11
32875;BME280;40468;42.128;24.750;2023-07-31T03:30:12;99057.44;;;24.72;55.81
32875;BME280;40468;42.128;24.750;2023-07-31T03:31:42;99062.13;;;24.70;56.10
32875;BME280;40468;42.128;24.750;2023-07-31T03:33:14;99057.69;;;24.63;57.16
32875;BME280;40468;42.128;24.750;2023-07-31T03:34:45;99064.19;;;24.60;57.32
32875;BME280;40468;42.128;24.750;2023-07-31T03:36:17;99068.03;;;24.58;58.38
32875;BME280;40468;42.128;24.750;2023-07-31T03:37:49;99072.06;;;24.54;58.64
32875;BME280;40468;42.128;24.750;2023-07-31T03:39:20;99069.91;;;24.49;58.95
32875;BME280;40468;42.128;24.750;2023-07-31T03:40:52;99071.94;;;24.47;59.17
32875;BME280;40468;42.128;24.750;2023-07-31T03:42:23;99078.75;;;24.41;60.32
32875;BME280;40468;42.128;24.750;2023-07-31T03:43:56;99073.13;;;24.36;60.31
32875;BME280;40468;42.128;24.750;2023-07-31T03:45:27;99087.47;;;24.27;61.01
32875;BME280;40468;42.128;24.750;2023-07-31T03:46:59;99085.56;;;24.13;61.77
32875;BME280;40468;42.128;24.750;2023-07-31T03:48:30;99097.25;;;24.03;61.96
32875;BME280;40468;42.128;24.750;2023-07-31T03:50:02;99101.25;;;23.99;63.11
32875;BME280;40468;42.128;24.750;2023-07-31T03:51:33;99106.28;;;23.86;63.81
32875;BME280;40468;42.128;24.750;2023-07-31T03:53:04;99115.81;;;23.72;64.74
32875;BME280;40468;42.128;24.750;2023-07-31T03:54:35;99120.78;;;23.59;65.75
32875;BME280;40468;42.128;24.750;2023-07-31T03:56:07;99124.13;;;23.45;66.16
32875;BME280;40468;42.128;24.750;2023-07-31T03:57:38;99113.00;;;23.33;66.70
32875;BME280;40468;42.128;24.750;2023-07-31T03:59:11;99120.16;;;23.24;67.55
32875;BME280;40468;42.128;24.750;2023-07-31T04:00:42;99114.34;;;23.12;68.09
32875;BME280;40468;42.128;24.750;2023-07-31T04:02:14;99114.19;;;23.06;68.28
32875;BME280;40468;42.128;24.750;2023-07-31T04:03:45;99111.88;;;23.03;68.30
32875;BME280;40468;42.128;24.750;2023-07-31T04:05:16;99122.47;;;22.94;68.70
32875;BME280;40468;42.128;24.750;2023-07-31T04:06:47;99117.81;;;22.88;69.07
32875;BME280;40468;42.128;24.750;2023-07-31T04:08:19;99119.28;;;22.83;69.34
32875;BME280;40468;42.128;24.750;2023-07-31T04:09:50;99120.13;;;22.75;69.92
32875;BME280;40468;42.128;24.750;2023-07-31T04:11:22;99126.91;;;22.69;70.09
32875;BME280;40468;42.128;24.750;2023-07-31T04:12:52;99124.09;;;22.63;70.85
32875;BME280;40468;42.128;24.750;2023-07-31T04:14:26;99123.75;;;22.58;71.10
32875;BME280;40468;42.128;24.750;2023-07-31T04:15:56;99122.56;;;22.52;71.60
32875;BME280;40468;42.128;24.750;2023-07-31T04:17:28;99126.53;;;22.48;72.19
32875;BME280;40468;42.128;24.750;2023-07-31T04:18:59;99136.63;;;22.44;72.31
32875;BME280;40468;42.128;24.750;2023-07-31T04:20:31;99133.31;;;22.42;72.28
32875;BME280;40468;42.128;24.750;2023-07-31T04:22:02;99139.78;;;22.40;72.44
32875;BME280;40468;42.128;24.750;2023-07-31T04:23:34;99145.22;;;22.38;72.71
32875;BME280;40468;42.128;24.750;2023-07-31T04:25:09;99139.41;;;22.35;72.74
32875;BME280;40468;42.128;24.750;2023-07-31T04:26:39;99140.06;;;22.29;72.96
32875;BME280;40468;42.128;24.750;2023-07-31T04:28:11;99137.56;;;22.27;73.06
32875;BME280;40468;42.128;24.750;2023-07-31T04:29:44;99140.38;;;22.25;72.99
32875;BME280;40468;42.128;24.750;2023-07-31T04:31:17;99142.53;;;22.22;73.16
32875;BME280;40468;42.128;24.750;2023-07-31T04:32:48;99144.50;;;22.20;73.25
32875;BME280;40468;42.128;24.750;2023-07-31T04:34:20;99142.84;;;22.19;73.51
32875;BME280;40468;42.128;24.750;2023-07-31T04:35:51;99151.47;;;22.21;72.99
32875;BME280;40468;42.128;24.750;2023-07-31T04:37:23;99144.50;;;22.20;73.42
32875;BME280;40468;42.128;24.750;2023-07-31T04:38:54;99143.19;;;22.24;73.05
32875;BME280;40468;42.128;24.750;2023-07-31T04:40:26;99149.84;;;22.28;72.94
32875;BME280;40468;42.128;24.750;2023-07-31T04:41:57;99150.84;;;22.35;72.93
32875;BME280;40468;42.128;24.750;2023-07-31T04:43:30;99149.25;;;22.42;72.72
32875;BME280;40468;42.128;24.750;2023-07-31T04:45:02;99148.28;;;22.52;72.40
32875;BME280;40468;42.128;24.750;2023-07-31T04:46:35;99147.75;;;22.56;72.04
32875;BME280;40468;42.128;24.750;2023-07-31T04:48:06;99133.84;;;22.62;72.26
32875;BME280;40468;42.128;24.750;2023-07-31T04:49:37;99138.34;;;22.70;71.71
32875;BME280;40468;42.128;24.750;2023-07-31T04:51:08;99134.03;;;22.77;71.56
32875;BME280;40468;42.128;24.750;2023-07-31T04:52:40;99145.50;;;22.86;71.46
32875;BME280;40468;42.128;24.750;2023-07-31T04:54:11;99141.38;;;22.91;71.34
32875;BME280;40468;42.128;24.750;2023-07-31T04:55:45;99142.03;;;22.93;71.09
32875;BME280;40468;42.128;24.750;2023-07-31T04:57:16;99137.56;;;22.94;71.02
32875;BME280;40468;42.128;24.750;2023-07-31T04:58:47;99141.56;;;22.98;70.48
32875;BME280;40468;42.128;24.750;2023-07-31T05:00:21;99139.56;;;23.00;70.70
32875;BME280;40468;42.128;24.750;2023-07-31T05:01:52;99139.56;;;23.00;70.48
32875;BME280;40468;42.128;24.750;2023-07-31T05:03:24;99135.28;;;22.99;70.60
32875;BME280;40468;42.128;24.750;2023-07-31T05:04:56;99139.75;;;22.99;70.57
32875;BME280;40468;42.128;24.750;2023-07-31T05:06:28;99141.06;;;23.03;70.14
32875;BME280;40468;42.128;24.750;2023-07-31T05:07:58;99137.25;;;23.05;70.42
32875;BME280;40468;42.128;24.750;2023-07-31T05:09:31;99135.94;;;23.09;70.12
32875;BME280;40468;42.128;24.750;2023-07-31T05:11:03;99130.13;;;23.14;69.97
32875;BME280;40468;42.128;24.750;2023-07-31T05:12:35;99137.78;;;23.17;69.91
32875;BME280;40468;42.128;24.750;2023-07-31T05:14:06;99135.78;;;23.19;69.41
32875;BME280;40468;42.128;24.750;2023-07-31T05:15:41;99131.44;;;23.26;69.30
32875;BME280;40468;42.128;24.750;2023-07-31T05:17:12;99142.41;;;23.31;69.12
32875;BME280;40468;42.128;24.750;2023-07-31T05:18:44;99134.09;;;23.34;69.03
32875;BME280;40468;42.128;24.750;2023-07-31T05:20:15;99142.09;;;23.43;68.59
32875;BME280;40468;42.128;24.750;2023-07-31T05:21:48;99140.88;;;23.45;68.44
32875;BME280;40468;42.128;24.750;2023-07-31T05:23:19;99134.41;;;23.48;68.22
32875;BME280;40468;42.128;24.750;2023-07-31T05:24:50;99143.53;;;23.53;68.30
32875;BME280;40468;42.128;24.750;2023-07-31T05:26:21;99138.38;;;23.60;68.34
32875;BME280;40468;42.128;24.750;2023-07-31T05:27:53;99143.34;;;23.63;67.91
32875;BME280;40468;42.128;24.750;2023-07-31T05:29:25;99147.34;;;23.67;67.59
32875;BME280;40468;42.128;24.750;2023-07-31T05:31:00;99137.91;;;23.73;67.24
32875;BME280;40468;42.128;24.750;2023-07-31T05:32:32;99146.34;;;23.76;67.10
32875;BME280;40468;42.128;24.750;2023-07-31T05:34:03;99150.50;;;23.79;66.58
32875;BME280;40468;42.128;24.750;2023-07-31T05:35:35;99151.00;;;23.82;66.37
32875;BME280;40468;42.128;24.750;2023-07-31T05:37:07;99148.00;;;23.86;66.22
32875;BME280;40468;42.128;24.750;2023-07-31T05:38:39;99153.16;;;23.87;66.11
32875;BME280;40468;42.128;24.750;2023-07-31T05:40:10;99150.16;;;23.90;66.01
32875;BME280;40468;42.128;24.750;2023-07-31T05:41:42;99160.28;;;23.87;66.12
32875;BME280;40468;42.128;24.750;2023-07-31T05:43:13;99156.78;;;23.86;65.64
32875;BME280;40468;42.128;24.750;2023-07-31T05:44:45;99160.63;;;23.83;65.42
32875;BME280;40468;42.128;24.750;2023-07-31T05:46:17;99157.31;;;23.81;64.98
32875;BME280;40468;42.128;24.750;2023-07-31T05:47:49;99163.97;;;23.61;65.42
32875;BME280;40468;42.128;24.750;2023-07-31T05:49:21;99164.81;;;23.70;65.19
32875;BME280;40468;42.128;24.750;2023-07-31T05:50:52;99159.66;;;23.76;64.95
32875;BME280;40468;42.128;24.750;2023-07-31T05:52:24;99163.63;;;23.80;65.10
32875;BME280;40468;42.128;24.750;2023-07-31T05:53:55;99165.44;;;23.88;64.82
32875;BME280;40468;42.128;24.750;2023-07-31T05:55:27;99168.59;;;23.92;64.67
32875;BME280;40468;42.128;24.750;2023-07-31T05:56:59;99163.09;;;23.93;64.76
32875;BME280;40468;42.128;24.750;2023-07-31T05:58:30;99161.25;;;24.02;64.85
32875;BME280;40468;42.128;24.750;2023-07-31T06:00:02;99162.03;;;24.11;64.44
32875;BME280;40468;42.128;24.750;2023-07-31T06:01:35;99159.81;;;24.22;63.98
32875;BME280;40468;42.128;24.750;2023-07-31T06:03:09;99156.66;;;24.27;63.95
32875;BME280;40468;42.128;24.750;2023-07-31T06:04:40;99164.44;;;24.45;63.67
32875;BME280;40468;42.128;24.750;2023-07-31T06:06:12;99159.38;;;24.58;62.99
32875;BME280;40468;42.128;24.750;2023-07-31T06:07:44;99157.78;;;24.72;62.95
32875;BME280;40468;42.128;24.750;2023-07-31T06:09:16;99149.59;;;24.82;62.47
32875;BME280;40468;42.128;24.750;2023-07-31T06:10:47;99155.31;;;24.93;61.71
32875;BME280;40468;42.128;24.750;2023-07-31T06:12:19;99156.56;;;25.06;60.81
32875;BME280;40468;42.128;24.750;2023-07-31T06:13:50;99155.34;;;25.16;60.20
32875;BME280;40468;42.128;24.750;2023-07-31T06:15:22;99154.19;;;25.34;59.71
32875;BME280;40468;42.128;24.750;2023-07-31T06:16:54;99148.16;;;25.55;58.40
32875;BME280;40468;42.128;24.750;2023-07-31T06:18:26;99156.25;;;25.61;58.10
32875;BME280;40468;42.128;24.750;2023-07-31T06:19:57;99158.13;;;25.76;56.95
32875;BME280;40468;42.128;24.750;2023-07-31T06:21:29;99155.69;;;25.89;56.48
32875;BME280;40468;42.128;24.750;2023-07-31T06:23:00;99162.00;;;26.03;56.18
32875;BME280;40468;42.128;24.750;2023-07-31T06:24:33;99161.09;;;26.10;55.84
32875;BME280;40468;42.128;24.750;2023-07-31T06:26:04;99157.41;;;26.12;55.81
32875;BME280;40468;42.128;24.750;2023-07-31T06:27:36;99158.28;;;26.12;55.70
32875;BME280;40468;42.128;24.750;2023-07-31T06:29:07;99170.66;;;26.20;55.71
32875;BME280;40468;42.128;24.750;2023-07-31T06:30:39;99158.41;;;26.25;55.17
32875;BME280;40468;42.128;24.750;2023-07-31T06:32:11;99159.16;;;26.34;55.38
32875;BME280;40468;42.128;24.750;2023-07-31T06:33:43;99158.78;;;26.37;54.92
32875;BME280;40468;42.128;24.750;2023-07-31T06:35:14;99158.78;;;26.37;54.59
32875;BME280;40468;42.128;24.750;2023-07-31T06:36:46;99162.09;;;26.39;54.50
32875;BME280;40468;42.128;24.750;2023-07-31T06:38:22;99164.00;;;26.45;54.56
32875;BME280;40468;42.128;24.750;2023-07-31T06:39:54;99157.13;;;26.51;54.59
32875;BME280;40468;42.128;24.750;2023-07-31T06:41:26;99159.50;;;26.61;54.46
32875;BME280;40468;42.128;24.750;2023-07-31T06:42:57;99166.19;;;26.71;54.18
32875;BME280;40468;42.128;24.750;2023-07-31T06:44:30;99156.41;;;26.78;53.56
32875;BME280;40468;42.128;24.750;2023-07-31T06:46:04;99149.84;;;26.81;53.76
32875;BME280;40468;42.128;24.750;2023-07-31T06:47:40;99143.09;;;26.85;53.59
32875;BME280;40468;42.128;24.750;2023-07-31T06:49:10;99148.91;;;26.89;53.12
32875;BME280;40468;42.128;24.750;2023-07-31T06:50:43;99142.81;;;26.95;53.12
32875;BME280;40468;42.128;24.750;2023-07-31T06:52:13;99148.00;;;27.03;52.89
32875;BME280;40468;42.128;24.750;2023-07-31T06:53:46;99154.88;;;27.12;52.67
32875;BME280;40468;42.128;24.750;2023-07-31T06:55:18;99144.28;;;27.19;52.59
32875;BME280;40468;42.128;24.750;2023-07-31T06:56:50;99158.09;;;27.22;52.33
32875;BME280;40468;42.128;24.750;2023-07-31T06:58:22;99155.84;;;27.26;52.34
32875;BME280;40468;42.128;24.750;2023-07-31T06:59:53;99151.16;;;27.28;51.73
32875;BME280;40468;42.128;24.750;2023-07-31T07:01:25;99158.41;;;27.34;51.48
32875;BME280;40468;42.128;24.750;2023-07-31T07:02:59;99154.31;;;27.38;51.34
32875;BME280;40468;42.128;24.750;2023-07-31T07:04:30;99151.06;;;27.43;51.46
32875;BME280;40468;42.128;24.750;2023-07-31T07:06:03;99145.13;;;27.48;51.09
32875;BME280;40468;42.128;24.750;2023-07-31T07:07:34;99143.97;;;27.57;50.73
32875;BME280;40468;42.128;24.750;2023-07-31T07:09:06;99143.59;;;27.60;50.83
32875;BME280;40468;42.128;24.750;2023-07-31T07:10:38;99156.16;;;27.66;50.60
32875;BME280;40468;42.128;24.750;2023-07-31T07:12:10;99149.59;;;27.68;50.30
32875;BME280;40468;42.128;24.750;2023-07-31T07:13:41;99142.63;;;27.74;50.29
32875;BME280;40468;42.128;24.750;2023-07-31T07:15:14;99145.44;;;27.87;50.32
32875;BME280;40468;42.128;24.750;2023-07-31T07:16:45;99153.97;;;28.04;50.08
32875;BME280;40468;42.128;24.750;2023-07-31T07:18:18;99143.72;;;28.15;49.59
32875;BME280;40468;42.128;24.750;2023-07-31T07:19:51;99147.88;;;28.24;49.14
32875;BME280;40468;42.128;24.750;2023-07-31T07:21:23;99153.25;;;28.30;48.94
32875;BME280;40468;42.128;24.750;2023-07-31T07:22:55;99152.44;;;28.36;48.93
32875;BME280;40468;42.128;24.750;2023-07-31T07:24:25;99152.72;;;28.42;48.53
32875;BME280;40468;42.128;24.750;2023-07-31T07:25:57;99149.84;;;28.50;48.32
32875;BME280;40468;42.128;24.750;2023-07-31T07:27:28;99144.28;;;28.51;48.57
32875;BME280;40468;42.128;24.750;2023-07-31T07:29:00;99154.22;;;28.57;48.16
32875;BME280;40468;42.128;24.750;2023-07-31T07:30:33;99146.38;;;28.56;48.40
32875;BME280;40468;42.128;24.750;2023-07-31T07:32:04;99143.28;;;28.52;48.16
32875;BME280;40468;42.128;24.750;2023-07-31T07:33:38;99141.59;;;28.51;47.94
32875;BME280;40468;42.128;24.750;2023-07-31T07:35:09;99141.41;;;28.53;47.93
32875;BME280;40468;42.128;24.750;2023-07-31T07:36:41;99138.16;;;28.64;48.40
32875;BME280;40468;42.128;24.750;2023-07-31T07:38:13;99143.94;;;28.68;47.89
32875;BME280;40468;42.128;24.750;2023-07-31T07:39:46;99146.00;;;28.72;47.76
32875;BME280;40468;42.128;24.750;2023-07-31T07:41:17;99152.00;;;28.81;47.62
32875;BME280;40468;42.128;24.750;2023-07-31T07:42:49;99145.63;;;28.89;47.27
32875;BME280;40468;42.128;24.750;2023-07-31T07:44:20;99141.50;;;28.86;47.24
32875;BME280;40468;42.128;24.750;2023-07-31T07:45:52;99138.63;;;28.94;47.33
32875;BME280;40468;42.128;24.750;2023-07-31T07:47:23;99142.19;;;29.08;47.07
32875;BME280;40468;42.128;24.750;2023-07-31T07:48:57;99140.72;;;29.19;47.08
32875;BME280;40468;42.128;24.750;2023-07-31T07:50:27;99143.84;;;29.22;46.78
32875;BME280;40468;42.128;24.750;2023-07-31T07:51:59;99145.25;;;29.25;46.63
32875;BME280;40468;42.128;24.750;2023-07-31T07:53:30;99142.16;;;29.28;46.65
32875;BME280;40468;42.128;24.750;2023-07-31T07:55:03;99143.19;;;29.34;46.66
32875;BME280;40468;42.128;24.750;2023-07-31T07:56:34;99134.75;;;29.37;46.37
32875;BME280;40468;42.128;24.750;2023-07-31T07:58:07;99139.50;;;29.41;46.42
32875;BME280;40468;42.128;24.750;2023-07-31T07:59:38;99147.94;;;29.45;46.09
32875;BME280;40468;42.128;24.750;2023-07-31T08:01:10;99145.25;;;29.52;46.05